Terminal Aerodrome Forecast
Issued by NWS Wilmington, OH

Home | Current Version | Previous Version | Text Only | Print | Product List | Glossary On
Versions: 1 2 3 4 5 6 7 8 9 10 11 12 13 14 15 16 17 18 19 20 21 22 23 24 25 26 27 28 29 30 31 32
000
FTUS41 KILN 302300
TAFCVG
TAF
KCVG 302330Z 3100/0106 01004KT P6SM FEW035
     FM310300 VRB03KT P6SM SKC
     FM311200 19005KT P6SM SCT250
     FM311800 22007KT P6SM BKN250
     FM010100 20004KT P6SM VCSH OVC025=

USA.gov is the U.S. government's official web portal to all federal, state and local government web resources and services.